Unidilla, Georgia
Current Conditions -  °F | °C
As of 7:15 PM on Wednesday 26 Nov 2014 (Local Time) from KPXE Reporting Station
Clear Clear  
Wind Chill: 47°   Ceiling: Unl
Heat Index: 47°   Visibility: 10mi
Dew Point: 33°   Wind: 3mph
Humidity: 59%   Direction: 250°WSW
Pressure: 30.14"   Gusts: NA
Location:  32.2533°N, 83.7537°W
Report Text: KPXE 270015Z AUTO 25003KT 10SM CLR 08/01 A3014 RMK AO2 T00840007
Loading
Personal Weather Stations






























Interactive Weather Map New forecast layout! Learn more

10-Day Weather Forecast

Advertisements
Track Severe Weather on mobile